Time;durP1;ratioP1;P1;durP2;ratioP2;P2;SDS_P1;SDS_P2;PMS_P1;PMS_P2;Temp;Humidity;BMP_temperature;BMP_pressure;BME280_temperature;BME280_humidity;BME280_pressure;Samples;Min_cycle;Max_cycle;Signal;HPM_P1;HPM_P2
2022/04/11 00:01:49;;;;;;;2.67;1.38;;;1.80;99.90;;;;;;5038658;28;20462;-82
2022/04/11 00:04:14;;;;;;;1.50;1.10;;;1.80;99.90;;;;;;5028119;28;20044;-82
2022/04/11 00:06:40;;;;;;;4.85;1.60;;;1.70;99.90;;;;;;5026407;28;20056;-82
2022/04/11 00:09:05;;;;;;;2.03;1.20;;;1.70;99.90;;;;;;5041456;28;20041;-82
2022/04/11 00:11:31;;;;;;;3.42;1.38;;;1.60;99.90;;;;;;5039735;28;20537;-82
2022/04/11 00:13:56;;;;;;;1.80;1.33;;;1.60;99.90;;;;;;5031926;28;20042;-82
2022/04/11 00:16:23;;;;;;;2.97;1.60;;;1.60;99.90;;;;;;5027725;28;20041;-82
2022/04/11 00:18:48;;;;;;;2.47;1.50;;;1.60;99.90;;;;;;5036573;28;20048;-82
2022/04/11 00:21:14;;;;;;;2.08;1.60;;;1.50;99.90;;;;;;5031018;28;20045;-82
2022/04/11 00:23:39;;;;;;;4.47;1.90;;;1.60;99.90;;;;;;5019843;28;20037;-82
2022/04/11 00:26:05;;;;;;;2.58;1.30;;;1.50;99.90;;;;;;5033529;28;20053;-81
2022/04/11 00:28:30;;;;;;;2.13;1.50;;;1.50;99.90;;;;;;5044883;28;20120;-81
2022/04/11 00:30:56;;;;;;;4.13;1.58;;;1.50;99.90;;;;;;5034684;28;20124;-81
2022/04/11 00:33:21;;;;;;;3.17;1.60;;;1.50;99.90;;;;;;5040082;28;20475;-82
2022/04/11 00:35:47;;;;;;;5.03;1.60;;;1.40;99.90;;;;;;5034127;28;20045;-82
2022/04/11 00:38:13;;;;;;;3.67;1.40;;;1.40;99.90;;;;;;5014789;28;20080;-81
2022/04/11 00:40:38;;;;;;;3.75;1.48;;;1.40;99.90;;;;;;5024421;28;20049;-82
2022/04/11 00:43:04;;;;;;;5.35;1.63;;;1.40;99.90;;;;;;5023360;28;20045;-81
2022/04/11 00:45:30;;;;;;;4.57;1.70;;;1.40;99.90;;;;;;5026953;28;20045;-81
2022/04/11 00:47:55;;;;;;;3.25;1.38;;;1.40;99.90;;;;;;5031654;28;20056;-82
2022/04/11 00:50:21;;;;;;;4.43;1.55;;;1.30;99.90;;;;;;5032787;28;20091;-81
2022/04/11 00:52:53;;;;;;;4.03;1.42;;;1.30;99.90;;;;;;5028508;28;20480;-82
2022/04/11 00:55:22;;;;;;;3.05;1.42;;;1.30;99.90;;;;;;5029141;28;20057;-81
2022/04/11 00:57:48;;;;;;;2.83;1.40;;;1.30;99.90;;;;;;5041587;28;20041;-82
2022/04/11 01:00:14;;;;;;;2.35;1.48;;;1.20;99.90;;;;;;5016496;28;20029;-81
2022/04/11 01:02:40;;;;;;;3.70;1.70;;;1.30;99.90;;;;;;5032570;28;20041;-81
2022/04/11 01:05:07;;;;;;;2.63;1.20;;;1.20;99.90;;;;;;5016574;28;20056;-81
2022/04/11 01:07:34;;;;;;;3.58;1.40;;;1.30;99.90;;;;;;5030228;28;20047;-81
2022/04/11 01:10:00;;;;;;;1.25;1.15;;;1.20;99.90;;;;;;5014711;28;20092;-81
2022/04/11 01:12:26;;;;;;;2.22;1.30;;;1.20;99.90;;;;;;5033025;28;20475;-81
2022/04/11 01:14:51;;;;;;;2.45;1.60;;;1.20;99.90;;;;;;5036507;28;20087;-82
2022/04/11 01:17:17;;;;;;;4.35;1.70;;;1.20;99.90;;;;;;5029020;28;20069;-82
2022/04/11 01:19:42;;;;;;;3.15;1.75;;;1.20;99.90;;;;;;5032653;28;20042;-81
2022/04/11 01:22:08;;;;;;;3.85;1.52;;;1.10;99.90;;;;;;5023885;28;20044;-82
2022/04/11 01:24:36;;;;;;;2.78;1.50;;;1.10;99.90;;;;;;5021508;28;20052;-82
2022/04/11 01:27:02;;;;;;;2.17;1.30;;;1.20;99.90;;;;;;5033331;28;20042;-81
2022/04/11 01:29:27;;;;;;;1.83;1.50;;;1.10;99.90;;;;;;5035356;28;20094;-82
2022/04/11 01:31:53;;;;;;;1.92;1.58;;;1.10;99.90;;;;;;5008435;28;20475;-81
2022/04/11 01:34:19;;;;;;;2.17;1.98;;;1.10;99.90;;;;;;5014720;28;20045;-82
2022/04/11 01:36:44;;;;;;;4.03;1.67;;;1.00;99.90;;;;;;5019632;28;20052;-81
2022/04/11 01:39:10;;;;;;;5.00;1.70;;;1.00;99.90;;;;;;5016053;28;20057;-82
2022/04/11 01:41:35;;;;;;;2.67;1.75;;;0.90;99.90;;;;;;5034199;28;20088;-82
2022/04/11 01:44:01;;;;;;;1.85;1.60;;;0.90;99.90;;;;;;5032685;28;20052;-81
2022/04/11 01:46:26;;;;;;;5.68;2.00;;;0.90;99.90;;;;;;5043533;28;20040;-81
2022/04/11 01:48:52;;;;;;;3.40;1.95;;;0.80;99.90;;;;;;5034749;28;20037;-81
2022/04/11 01:51:18;;;;;;;2.47;1.83;;;0.80;99.90;;;;;;5014936;28;20427;-82
2022/04/11 01:53:43;;;;;;;3.15;2.08;;;0.90;99.90;;;;;;5029256;28;20669;-81
2022/04/11 01:56:09;;;;;;;2.10;1.83;;;0.80;99.90;;;;;;5032661;28;20099;-82
2022/04/11 01:58:34;;;;;;;2.67;1.67;;;0.80;99.90;;;;;;5032227;28;20040;-81
2022/04/11 02:01:00;;;;;;;4.68;1.83;;;0.80;99.90;;;;;;5040877;28;20120;-81
2022/04/11 02:03:26;;;;;;;1.50;1.40;;;0.80;99.90;;;;;;5018578;28;20041;-81
2022/04/11 02:05:52;;;;;;;1.90;1.65;;;0.80;99.90;;;;;;5026700;28;20510;-82
2022/04/11 02:08:17;;;;;;;2.72;1.80;;;0.80;99.90;;;;;;5029616;28;20154;-81
2022/04/11 02:10:43;;;;;;;4.07;2.00;;;0.80;99.90;;;;;;5042615;28;20034;-81
2022/04/11 02:13:09;;;;;;;4.03;1.65;;;0.80;99.90;;;;;;5007534;28;20084;-82
2022/04/11 02:15:35;;;;;;;4.30;1.98;;;0.70;99.90;;;;;;5031894;28;20041;-82
2022/04/11 02:18:01;;;;;;;1.92;1.50;;;0.80;99.90;;;;;;5012069;28;20041;-82
2022/04/11 02:20:26;;;;;;;3.25;1.65;;;0.70;99.90;;;;;;5020258;28;20041;-82
2022/04/11 02:22:53;;;;;;;2.08;1.80;;;0.70;99.90;;;;;;5034757;28;20048;-82
2022/04/11 02:25:21;;;;;;;3.25;1.50;;;0.70;99.90;;;;;;5028793;28;20048;-82
2022/04/11 02:27:48;;;;;;;2.25;1.70;;;0.70;99.90;;;;;;5029970;28;20041;-82
2022/04/11 02:30:15;;;;;;;4.40;1.80;;;0.70;99.90;;;;;;5035566;28;20051;-82
2022/04/11 02:32:41;;;;;;;3.10;1.58;;;0.70;99.90;;;;;;5028740;28;20045;-81
2022/04/11 02:35:07;;;;;;;3.10;1.70;;;0.70;99.90;;;;;;5031708;28;20046;-81
2022/04/11 02:37:34;;;;;;;2.20;1.48;;;0.70;99.90;;;;;;5016903;28;20042;-81
2022/04/11 02:40:00;;;;;;;2.08;1.70;;;0.70;99.90;;;;;;5037709;28;20038;-81
2022/04/11 02:42:27;;;;;;;2.90;1.63;;;0.70;99.90;;;;;;5031202;28;20037;-81
2022/04/11 02:44:54;;;;;;;2.22;1.50;;;0.70;99.90;;;;;;5044317;28;20068;-82
2022/04/11 02:47:20;;;;;;;3.28;1.75;;;0.70;99.90;;;;;;5032211;28;20052;-81
2022/04/11 02:49:47;;;;;;;3.08;1.70;;;0.70;99.90;;;;;;5030000;28;20037;-82
2022/04/11 02:52:13;;;;;;;3.80;1.55;;;0.70;99.90;;;;;;5031462;28;20033;-82
2022/04/11 02:54:39;;;;;;;3.63;1.83;;;0.60;99.90;;;;;;5031207;28;20045;-81
2022/04/11 02:57:06;;;;;;;4.30;1.60;;;0.60;99.90;;;;;;5014027;28;20034;-81
2022/04/11 02:59:32;;;;;;;2.95;1.48;;;0.40;99.90;;;;;;5035229;28;20047;-82
2022/04/11 03:01:58;;;;;;;2.58;1.58;;;0.40;99.90;;;;;;5041457;28;20041;-81
2022/04/11 03:04:24;;;;;;;2.00;1.70;;;0.40;99.90;;;;;;5020781;28;20096;-81
2022/04/11 03:06:49;;;;;;;4.30;1.58;;;0.40;99.90;;;;;;5041811;28;20418;-81
2022/04/11 03:09:15;;;;;;;2.28;1.42;;;0.40;99.90;;;;;;5044018;28;20051;-81
2022/04/11 03:11:41;;;;;;;4.25;1.95;;;0.30;99.90;;;;;;5033614;28;20041;-81
2022/04/11 03:14:06;;;;;;;5.78;1.70;;;0.30;99.90;;;;;;5025258;28;20647;-81
2022/04/11 03:16:32;;;;;;;3.45;1.70;;;0.30;99.90;;;;;;5024169;28;20053;-81
2022/04/11 03:18:58;;;;;;;3.28;2.28;;;0.30;99.90;;;;;;5033467;28;20403;-81
2022/04/11 03:21:23;;;;;;;4.15;2.15;;;0.20;99.90;;;;;;5035141;28;20117;-82
2022/04/11 03:23:49;;;;;;;3.22;2.00;;;0.30;99.90;;;;;;5028970;28;20441;-81
2022/04/11 03:26:14;;;;;;;5.43;1.83;;;0.20;99.90;;;;;;5016017;28;20068;-81
2022/04/11 03:28:40;;;;;;;3.13;2.20;;;0.20;99.90;;;;;;5034574;28;20048;-81
2022/04/11 03:31:05;;;;;;;4.13;2.33;;;0.10;99.90;;;;;;5040154;28;20049;-82
2022/04/11 03:33:31;;;;;;;4.10;2.00;;;0.10;99.90;;;;;;5042739;28;20115;-82
2022/04/11 03:35:56;;;;;;;1.98;1.73;;;0.00;99.90;;;;;;5035421;28;20050;-82
2022/04/11 03:38:22;;;;;;;5.43;1.95;;;0.00;99.90;;;;;;5034664;28;20045;-81
2022/04/11 03:40:47;;;;;;;3.50;1.90;;;0.10;99.90;;;;;;5034813;28;20033;-81
2022/04/11 03:43:13;;;;;;;4.93;2.08;;;0.10;99.90;;;;;;5029261;28;20083;-81
2022/04/11 03:45:39;;;;;;;5.65;2.00;;;0.10;99.90;;;;;;5020474;28;20045;-81
2022/04/11 03:48:05;;;;;;;2.88;1.80;;;0.20;99.90;;;;;;5034904;28;20045;-81
2022/04/11 03:50:30;;;;;;;3.70;1.88;;;0.20;99.90;;;;;;5034773;28;20091;-82
2022/04/11 03:52:56;;;;;;;3.15;2.00;;;0.20;99.90;;;;;;5034648;28;20479;-82
2022/04/11 03:55:22;;;;;;;3.88;2.30;;;0.20;99.90;;;;;;5047739;28;20116;-82
2022/04/11 03:57:47;;;;;;;3.75;2.10;;;0.20;99.90;;;;;;5037143;28;20029;-82
2022/04/11 04:00:14;;;;;;;5.20;2.75;;;0.30;99.90;;;;;;5048215;28;20041;-82
2022/04/11 04:02:39;;;;;;;3.20;2.20;;;0.30;99.90;;;;;;5032488;28;20426;-81
2022/04/11 04:05:05;;;;;;;5.63;2.60;;;0.30;99.90;;;;;;5034301;28;20045;-81
2022/04/11 04:07:31;;;;;;;5.20;1.88;;;0.50;99.90;;;;;;5048123;28;20049;-81
2022/04/11 04:09:56;;;;;;;2.97;2.20;;;0.50;99.90;;;;;;5034096;28;20048;-82
2022/04/11 04:12:22;;;;;;;4.22;2.20;;;0.50;99.90;;;;;;5040729;28;20052;-82
2022/04/11 04:14:48;;;;;;;3.80;2.13;;;0.60;99.90;;;;;;5047823;28;20086;-81
2022/04/11 04:17:14;;;;;;;3.92;2.15;;;0.60;99.90;;;;;;5030447;28;20163;-82
2022/04/11 04:19:39;;;;;;;5.05;2.88;;;0.60;99.90;;;;;;5036859;28;20076;-82
2022/04/11 04:22:05;;;;;;;4.07;2.30;;;0.60;99.90;;;;;;5013908;28;20042;-81
2022/04/11 04:24:36;;;;;;;4.78;2.13;;;0.70;99.90;;;;;;5023369;28;20045;-82
2022/04/11 04:27:02;;;;;;;3.85;2.30;;;0.60;99.90;;;;;;5040926;28;20041;-82
2022/04/11 04:29:28;;;;;;;4.07;2.53;;;0.60;99.90;;;;;;5035757;28;20111;-82
2022/04/11 04:31:54;;;;;;;2.80;2.40;;;0.70;99.90;;;;;;5034469;28;20041;-81
2022/04/11 04:34:20;;;;;;;3.67;2.53;;;0.70;99.90;;;;;;5047423;28;20467;-82
2022/04/11 04:36:46;;;;;;;3.20;2.63;;;0.70;99.90;;;;;;5034628;28;20091;-81
2022/04/11 04:39:12;;;;;;;4.75;2.50;;;0.70;99.90;;;;;;5024011;28;20554;-81
2022/04/11 04:41:38;;;;;;;5.72;2.53;;;0.80;99.90;;;;;;5018350;28;20124;-81
2022/04/11 04:44:05;;;;;;;3.22;1.92;;;0.80;99.90;;;;;;5037924;28;20052;-82
2022/04/11 04:46:34;;;;;;;3.83;2.50;;;0.80;99.90;;;;;;5029369;28;20053;-81
2022/04/11 04:49:00;;;;;;;3.30;1.92;;;0.80;99.90;;;;;;5027472;28;20041;-82
2022/04/11 04:51:26;;;;;;;5.85;2.20;;;0.80;99.90;;;;;;5036543;28;20424;-82
2022/04/11 04:53:51;;;;;;;4.30;2.30;;;0.80;99.90;;;;;;5046583;28;20356;-82
2022/04/11 04:56:17;;;;;;;3.42;2.40;;;0.90;99.90;;;;;;5031866;28;20088;-82
2022/04/11 04:58:45;;;;;;;3.65;2.40;;;0.90;99.90;;;;;;5033149;28;20091;-82
2022/04/11 05:01:14;;;;;;;6.80;2.28;;;0.90;99.90;;;;;;5036214;28;20080;-82
2022/04/11 05:03:40;;;;;;;3.95;2.60;;;1.00;99.90;;;;;;5034701;28;20041;-82
2022/04/11 05:06:06;;;;;;;3.00;2.45;;;1.00;99.90;;;;;;5031665;28;20048;-82
2022/04/11 05:08:32;;;;;;;4.35;2.38;;;1.20;99.90;;;;;;5027717;28;20399;-82
2022/04/11 05:10:59;;;;;;;3.90;2.40;;;1.20;99.90;;;;;;5032835;28;20396;-82
2022/04/11 05:13:24;;;;;;;3.38;2.25;;;1.30;99.90;;;;;;5019451;28;20048;-82
2022/04/11 05:15:50;;;;;;;4.63;2.10;;;1.30;99.90;;;;;;5032059;28;20029;-82
2022/04/11 05:18:15;;;;;;;6.30;2.65;;;1.30;99.90;;;;;;5015552;28;20041;-82
2022/04/11 05:20:41;;;;;;;5.15;2.58;;;1.40;99.90;;;;;;5032067;28;20038;-82
2022/04/11 05:23:07;;;;;;;4.28;2.50;;;1.40;99.90;;;;;;5016629;28;20038;-82
2022/04/11 05:25:33;;;;;;;3.72;2.38;;;1.50;99.90;;;;;;5034651;28;20043;-82
2022/04/11 05:27:59;;;;;;;6.20;2.97;;;1.60;99.90;;;;;;5014465;28;20132;-82
2022/04/11 05:30:25;;;;;;;5.53;2.55;;;1.60;99.90;;;;;;5039109;28;20086;-82
2022/04/11 05:32:50;;;;;;;2.67;2.30;;;1.70;99.90;;;;;;5030419;28;20038;-82
2022/04/11 05:35:16;;;;;;;4.47;2.67;;;1.80;99.90;;;;;;5028814;28;20047;-82
2022/04/11 05:37:42;;;;;;;3.80;2.33;;;1.80;99.90;;;;;;5031905;28;20045;-82
2022/04/11 05:40:09;;;;;;;3.80;2.40;;;1.90;99.90;;;;;;5035514;28;20479;-82
2022/04/11 05:42:37;;;;;;;4.10;2.75;;;2.00;99.90;;;;;;5036679;28;20034;-86
2022/04/11 05:45:03;;;;;;;3.88;2.45;;;2.10;99.90;;;;;;5020224;28;20045;-85
2022/04/11 05:47:30;;;;;;;3.85;2.90;;;2.20;99.90;;;;;;5042438;28;20057;-85
2022/04/11 05:49:55;;;;;;;5.47;2.90;;;2.30;99.90;;;;;;5030988;28;20081;-86
2022/04/11 05:52:21;;;;;;;7.05;3.38;;;2.40;99.90;;;;;;5010496;28;20075;-86
2022/04/11 05:54:47;;;;;;;3.85;2.60;;;2.40;99.90;;;;;;5016010;28;20055;-85
2022/04/11 05:57:13;;;;;;;5.20;3.17;;;2.50;99.90;;;;;;5033538;28;20068;-86
2022/04/11 05:59:38;;;;;;;4.47;2.85;;;2.60;99.90;;;;;;5040628;28;20036;-85
2022/04/11 06:02:04;;;;;;;3.53;2.60;;;2.60;99.90;;;;;;5034564;28;20041;-86
2022/04/11 06:04:30;;;;;;;4.25;2.50;;;2.70;99.90;;;;;;5027552;28;20034;-85
2022/04/11 06:06:55;;;;;;;4.05;2.70;;;2.90;99.90;;;;;;5015334;28;20048;-86
2022/04/11 06:09:21;;;;;;;3.97;2.58;;;2.90;99.90;;;;;;5024428;28;20037;-86
2022/04/11 06:11:47;;;;;;;4.40;2.53;;;3.00;99.90;;;;;;5020467;28;20060;-86
2022/04/11 06:14:12;;;;;;;5.45;3.17;;;3.10;99.90;;;;;;5030143;28;20048;-86
2022/04/11 06:16:38;;;;;;;5.18;3.13;;;3.20;99.90;;;;;;5013665;28;20135;-86
2022/04/11 06:19:03;;;;;;;4.03;3.38;;;3.20;99.90;;;;;;5011502;28;20542;-85
2022/04/11 06:21:29;;;;;;;5.18;3.55;;;3.20;99.90;;;;;;5034289;28;20128;-86
2022/04/11 06:23:54;;;;;;;10.48;3.40;;;3.30;99.90;;;;;;5029014;28;20053;-86
2022/04/11 06:26:20;;;;;;;5.18;2.80;;;3.30;99.90;;;;;;5021840;28;20053;-86
2022/04/11 06:28:45;;;;;;;6.63;3.00;;;3.30;99.90;;;;;;5011809;28;20033;-87
2022/04/11 06:31:13;;;;;;;5.90;2.80;;;3.30;99.90;;;;;;5029752;28;20037;-86
2022/04/11 06:33:40;;;;;;;4.13;2.58;;;3.40;99.90;;;;;;5023036;28;20119;-86
2022/04/11 06:36:05;;;;;;;4.85;2.78;;;3.50;99.90;;;;;;5018140;28;20033;-86
2022/04/11 06:38:31;;;;;;;4.28;2.72;;;3.50;99.90;;;;;;5025267;28;20052;-86
2022/04/11 06:40:57;;;;;;;4.60;3.03;;;3.50;99.90;;;;;;5001140;28;20041;-86
2022/04/11 06:43:23;;;;;;;4.70;2.95;;;3.60;99.90;;;;;;5010092;28;20067;-86
2022/04/11 06:45:50;;;;;;;7.25;2.58;;;3.60;99.90;;;;;;5028356;28;20049;-84
2022/04/11 06:48:16;;;;;;;5.05;2.83;;;3.70;99.90;;;;;;5036160;28;20102;-86
2022/04/11 06:50:42;;;;;;;3.58;2.90;;;3.80;99.90;;;;;;5041168;22;20494;-82
2022/04/11 06:53:09;;;;;;;3.60;2.95;;;3.90;99.90;;;;;;5047976;28;20049;-82
2022/04/11 06:55:35;;;;;;;6.15;3.75;;;3.90;99.90;;;;;;5041143;28;20773;-82
2022/04/11 06:58:01;;;;;;;6.53;3.70;;;4.00;99.90;;;;;;5049438;28;20049;-82
2022/04/11 07:00:27;;;;;;;7.20;4.60;;;4.10;99.90;;;;;;5048633;28;20037;-81
2022/04/11 07:02:53;;;;;;;7.15;4.47;;;4.30;99.90;;;;;;5044580;28;20047;-81
2022/04/11 07:05:19;;;;;;;9.88;6.00;;;4.40;99.90;;;;;;5032886;28;20098;-81
2022/04/11 07:07:44;;;;;;;6.70;3.20;;;4.50;99.90;;;;;;5037964;28;20053;-82
2022/04/11 07:10:10;;;;;;;5.80;3.03;;;4.60;99.90;;;;;;5042702;28;20041;-82
2022/04/11 07:12:40;;;;;;;4.22;3.25;;;4.70;99.90;;;;;;5051065;28;20033;-82
2022/04/11 07:15:06;;;;;;;5.45;2.70;;;4.90;99.90;;;;;;5050329;28;20059;-82
2022/04/11 07:17:32;;;;;;;5.70;3.03;;;5.00;99.90;;;;;;5048151;28;20048;-81
2022/04/11 07:19:57;;;;;;;7.53;3.50;;;5.20;99.90;;;;;;5052238;28;20032;-82
2022/04/11 07:22:23;;;;;;;6.40;3.40;;;5.30;99.90;;;;;;5049230;28;20670;-81
2022/04/11 07:24:49;;;;;;;5.93;3.30;;;5.50;99.90;;;;;;5052455;28;20053;-82
2022/04/11 07:27:15;;;;;;;5.70;3.00;;;5.60;99.90;;;;;;5040770;28;20044;-81
2022/04/11 07:29:41;;;;;;;4.70;2.95;;;5.70;99.90;;;;;;5051452;28;20077;-82
2022/04/11 07:32:07;;;;;;;7.70;3.40;;;5.80;99.90;;;;;;5048897;28;20041;-82
2022/04/11 07:34:32;;;;;;;5.45;3.83;;;5.90;99.90;;;;;;5046505;28;20033;-82
2022/04/11 07:36:58;;;;;;;4.10;3.17;;;6.10;99.90;;;;;;5031430;28;20036;-82
2022/04/11 07:39:23;;;;;;;5.07;3.65;;;6.10;99.90;;;;;;5043665;28;20091;-83
2022/04/11 07:41:55;;;;;;;5.55;3.97;;;6.30;99.90;;;;;;5051222;28;20071;-82
2022/04/11 07:44:22;;;;;;;5.13;3.83;;;6.50;99.90;;;;;;5051575;28;20041;-83
2022/04/11 07:46:48;;;;;;;5.07;3.60;;;6.80;99.90;;;;;;5060260;28;20553;-83
2022/04/11 07:49:14;;;;;;;6.22;3.70;;;6.90;99.90;;;;;;5055928;28;20072;-82
2022/04/11 07:51:40;;;;;;;5.85;4.07;;;6.90;99.90;;;;;;5046404;28;20445;-82
2022/04/11 07:54:05;;;;;;;5.05;3.85;;;7.00;99.90;;;;;;5056709;28;20044;-82
2022/04/11 07:56:31;;;;;;;5.60;3.30;;;7.20;99.90;;;;;;5051036;28;20040;-82
2022/04/11 07:58:57;;;;;;;5.32;3.38;;;7.30;99.90;;;;;;5042418;28;20075;-82
2022/04/11 08:01:23;;;;;;;6.88;4.05;;;7.40;99.90;;;;;;5052791;28;20041;-82
2022/04/11 08:03:48;;;;;;;4.18;3.08;;;7.50;99.90;;;;;;5040079;28;20457;-82
2022/04/11 08:06:15;;;;;;;5.97;3.80;;;7.70;99.90;;;;;;5048070;28;20037;-82
2022/04/11 08:08:47;;;;;;;6.63;3.30;;;7.80;99.90;;;;;;5051803;28;20051;-83
2022/04/11 08:11:17;;;;;;;11.48;3.33;;;8.10;99.90;;;;;;5051562;28;20041;-82
2022/04/11 08:13:43;;;;;;;3.55;2.95;;;8.30;99.90;;;;;;5036115;28;20041;-83
2022/04/11 08:16:09;;;;;;;5.15;3.35;;;8.50;99.90;;;;;;5043403;28;20037;-83
2022/04/11 08:18:36;;;;;;;5.22;3.33;;;8.70;99.90;;;;;;5052494;28;20506;-82
2022/04/11 08:21:02;;;;;;;5.00;3.40;;;9.00;99.90;;;;;;5045923;28;20037;-82
2022/04/11 08:23:28;;;;;;;5.50;3.67;;;9.20;99.90;;;;;;5052694;28;20041;-82
2022/04/11 08:25:54;;;;;;;6.32;3.53;;;9.30;99.90;;;;;;5050418;28;20059;-82
2022/04/11 08:28:20;;;;;;;6.50;3.78;;;9.20;99.90;;;;;;5051733;28;20098;-82
2022/04/11 08:30:46;;;;;;;8.75;5.80;;;9.30;99.90;;;;;;5045484;28;20044;-81
2022/04/11 08:33:11;;;;;;;6.90;4.13;;;9.40;99.90;;;;;;5050717;28;20045;-82
2022/04/11 08:35:38;;;;;;;3.65;3.05;;;9.50;99.90;;;;;;5049973;28;20048;-82
2022/04/11 08:38:03;;;;;;;4.10;2.60;;;9.60;99.90;;;;;;5051612;28;20041;-81
2022/04/11 08:40:29;;;;;;;5.22;3.15;;;9.70;99.90;;;;;;5050779;28;20366;-81
2022/04/11 08:42:55;;;;;;;6.80;3.50;;;9.90;99.90;;;;;;5045361;28;20034;-82
2022/04/11 08:45:22;;;;;;;3.47;2.95;;;9.90;99.90;;;;;;5048133;28;20094;-81
2022/04/11 08:47:56;;;;;;;5.00;3.33;;;10.10;99.90;;;;;;5049332;28;20044;-81
2022/04/11 08:50:23;;;;;;;4.10;2.90;;;10.20;99.90;;;;;;5051137;28;20076;-82
2022/04/11 08:52:53;;;;;;;11.23;3.53;;;10.50;99.90;;;;;;5048338;28;20064;-81
2022/04/11 08:55:19;;;;;;;8.05;2.70;;;10.70;99.90;;;;;;5040650;28;20037;-81
2022/04/11 08:57:45;;;;;;;5.03;2.88;;;10.90;99.90;;;;;;5050918;28;20112;-81
2022/04/11 09:00:13;;;;;;;4.65;2.80;;;11.10;99.90;;;;;;5047046;28;20449;-81
2022/04/11 09:02:41;;;;;;;4.82;2.50;;;11.10;99.90;;;;;;5059230;28;20450;-81
2022/04/11 09:05:08;;;;;;;4.10;2.83;;;11.00;97.00;;;;;;5050039;28;20094;-81
2022/04/11 09:07:54;;;;;;;4.65;2.75;;;10.90;98.30;;;;;;5050998;28;20037;-81
2022/04/11 09:10:25;;;;;;;6.28;2.60;;;10.90;99.90;;;;;;5046346;28;20049;-81
2022/04/11 09:13:01;;;;;;;4.10;2.63;;;10.70;99.90;;;;;;5051615;28;20507;-81
2022/04/11 09:15:28;;;;;;;4.32;2.42;;;10.80;99.90;;;;;;5041357;28;20059;-81
2022/04/11 09:17:55;;;;;;;5.50;3.35;;;11.00;99.90;;;;;;5050390;28;20029;-81
2022/04/11 09:20:25;;;;;;;5.60;2.78;;;10.90;99.90;;;;;;5046842;28;20040;-81
2022/04/11 09:22:51;;;;;;;5.35;2.63;;;11.10;99.90;;;;;;5036285;28;20044;-81
2022/04/11 09:25:19;;;;;;;4.00;2.58;;;11.20;99.90;;;;;;5055908;28;20036;-82
2022/04/11 09:27:46;;;;;;;6.63;2.45;;;11.30;99.90;;;;;;5068711;28;20040;-81
2022/04/11 09:30:20;;;;;;;3.80;2.63;;;11.30;99.90;;;;;;5051395;28;20089;-81
2022/04/11 09:32:55;;;;;;;4.85;2.65;;;11.30;99.90;;;;;;5041068;28;20598;-81
2022/04/11 09:35:26;;;;;;;4.38;2.40;;;11.40;99.90;;;;;;5054727;28;20052;-81
2022/04/11 09:38:05;;;;;;;4.75;2.35;;;11.50;99.90;;;;;;5046982;28;20128;-82
2022/04/11 09:40:34;;;;;;;4.00;2.53;;;11.60;99.90;;;;;;5047765;28;20068;-81
2022/04/11 09:43:00;;;;;;;4.80;2.70;;;11.50;99.90;;;;;;5051845;28;20037;-81
2022/04/11 09:45:26;;;;;;;4.68;2.55;;;11.50;97.70;;;;;;5051055;28;20044;-81
2022/04/11 09:47:59;;;;;;;5.25;2.67;;;11.70;99.90;;;;;;5051522;28;20038;-83
2022/04/11 09:50:28;;;;;;;4.13;2.35;;;11.40;94.90;;;;;;5049013;28;20037;-82
2022/04/11 09:53:05;;;;;;;4.80;2.30;;;11.60;99.40;;;;;;5051068;28;20067;-82
2022/04/11 09:55:30;;;;;;;4.15;1.90;;;11.80;99.90;;;;;;5051808;28;20401;-81
2022/04/11 09:57:56;;;;;;;4.50;1.90;;;11.80;96.80;;;;;;5051251;28;20104;-83
2022/04/11 10:00:21;;;;;;;3.95;1.67;;;11.70;97.00;;;;;;5036498;28;20044;-82
2022/04/11 10:02:48;;;;;;;3.22;1.73;;;11.70;84.70;;;;;;5042511;28;20036;-83
2022/04/11 10:05:14;;;;;;;4.78;1.83;;;11.70;96.50;;;;;;5060291;28;20057;-82
2022/04/11 10:07:40;;;;;;;4.07;2.00;;;11.80;96.20;;;;;;5046535;28;20297;-82
2022/04/11 10:10:08;;;;;;;4.50;2.20;;;11.70;88.90;;;;;;5049896;28;20033;-82
2022/04/11 10:12:34;;;;;;;4.93;1.90;;;11.80;95.00;;;;;;5046135;28;20116;-82
2022/04/11 10:15:01;;;;;;;3.22;2.25;;;11.90;93.30;;;;;;5048681;28;20064;-82
2022/04/11 10:17:27;;;;;;;3.33;2.00;;;12.00;90.70;;;;;;5041495;28;20037;-82
2022/04/11 10:19:53;;;;;;;4.07;2.13;;;12.10;96.30;;;;;;5059522;28;20033;-81
2022/04/11 10:22:26;;;;;;;3.20;1.80;;;12.40;97.90;;;;;;5040782;28;20099;-81
2022/04/11 10:25:04;;;;;;;3.38;1.77;;;12.50;87.50;;;;;;5048619;28;20043;-81
2022/04/11 10:27:29;;;;;;;3.38;1.60;;;12.60;94.80;;;;;;5049632;28;20091;-82
2022/04/11 10:29:56;;;;;;;3.50;2.28;;;12.70;93.20;;;;;;5049090;28;20049;-81
2022/04/11 10:32:24;;;;;;;4.05;2.22;;;12.60;80.70;;;;;;5052139;28;20032;-82
2022/04/11 10:35:01;;;;;;;4.50;2.28;;;12.70;94.20;;;;;;5027218;28;20298;-81
2022/04/11 10:37:28;;;;;;;4.07;2.20;;;12.80;90.10;;;;;;5035592;28;20485;-82
2022/04/11 10:40:17;;;;;;;3.03;2.33;;;12.80;92.50;;;;;;5052158;28;20590;-81
2022/04/11 10:43:05;;;;;;;3.78;2.10;;;12.80;85.70;;;;;;5049536;28;20037;-82
2022/04/11 10:45:41;;;;;;;5.47;2.00;;;12.80;81.90;;;;;;5067843;28;20128;-82
2022/04/11 10:48:08;;;;;;;3.72;2.55;;;13.00;93.20;;;;;;5052209;28;20087;-82
2022/04/11 10:50:39;;;;;;;4.35;2.40;;;13.00;83.80;;;;;;5042400;28;20569;-81
2022/04/11 10:53:24;;;;;;;3.53;2.70;;;13.00;74.00;;;;;;5033348;28;20099;-82
2022/04/11 10:55:55;;;;;;;5.00;2.75;;;13.00;83.30;;;;;;5050784;28;20037;-82
2022/04/11 10:58:22;;;;;;;4.05;2.35;;;13.10;91.90;;;;;;5045415;28;20029;-81
2022/04/11 11:00:49;;;;;;;4.55;2.67;;;13.10;90.00;;;;;;5051258;28;20045;-82
2022/04/11 11:03:14;;;;;;;4.30;2.80;;;13.20;94.20;;;;;;5047723;28;20087;-82
2022/04/11 11:05:45;;;;;;;2.75;2.53;;;13.10;90.00;;;;;;5050564;28;20452;-82
2022/04/11 11:08:11;;;;;;;3.47;2.50;;;13.30;92.50;;;;;;5051468;28;20048;-82
2022/04/11 11:11:02;;;;;;;4.25;2.60;;;13.20;76.50;;;;;;5049926;28;20051;-82
2022/04/11 11:13:40;;;;;;;5.00;2.45;;;13.30;92.50;;;;;;5037273;28;20053;-82
2022/04/11 11:16:09;;;;;;;3.75;2.92;;;13.30;85.70;;;;;;5041216;28;20052;-83
2022/04/11 11:18:50;;;;;;;3.30;2.55;;;13.40;81.90;;;;;;5046639;28;20046;-83
2022/04/11 11:21:44;;;;;;;4.13;2.53;;;13.50;92.50;;;;;;5048104;28;20060;-82
2022/04/11 11:24:12;;;;;;;4.82;2.72;;;13.40;70.90;;;;;;5015336;28;20659;-82
2022/04/11 11:26:52;;;;;;;2.97;2.20;;;13.50;92.10;;;;;;5054922;28;20045;-82
2022/04/11 11:29:23;;;;;;;4.75;2.83;;;13.60;82.50;;;;;;5055300;28;20408;-81
2022/04/11 11:31:50;;;;;;;3.38;2.40;;;13.60;86.00;;;;;;5053849;28;20029;-81
2022/04/11 11:34:19;;;;;;;3.03;2.42;;;13.60;88.40;;;;;;5053971;28;20049;-81
2022/04/11 11:36:44;;;;;;;4.30;2.83;;;13.80;92.40;;;;;;5052220;28;20393;-81
2022/04/11 11:39:21;;;;;;;5.60;2.90;;;13.90;91.90;;;;;;5054383;28;20037;-81
2022/04/11 11:41:49;;;;;;;4.72;2.70;;;13.60;71.80;;;;;;5055363;28;20033;-81
2022/04/11 11:44:15;;;;;;;4.18;2.80;;;13.60;84.40;;;;;;5053701;28;20047;-82
2022/04/11 11:46:49;;;;;;;5.53;2.75;;;13.70;91.20;;;;;;5055388;28;20040;-81
2022/04/11 11:49:15;;;;;;;3.97;3.03;;;13.80;89.00;;;;;;5050268;28;20056;-78
2022/04/11 11:51:41;;;;;;;5.65;2.80;;;13.80;85.80;;;;;;5034994;28;20106;-78
2022/04/11 11:54:07;;;;;;;3.15;2.78;;;13.60;71.80;;;;;;5044688;28;20041;-78
2022/04/11 11:56:47;;;;;;;3.90;2.78;;;13.00;59.80;;;;;;5043484;28;20033;-79
2022/04/11 11:59:17;;;;;;;5.38;2.75;;;13.20;65.70;;;;;;5049578;28;20037;-78
2022/04/11 12:04:38;;;;;;;3.35;2.45;;;13.30;62.20;;;;;;5051613;28;20048;-79
2022/04/11 12:07:04;;;;;;;5.05;2.97;;;13.40;71.40;;;;;;5040971;28;20041;-79
2022/04/11 12:09:35;;;;;;;3.60;2.92;;;13.60;77.60;;;;;;5051936;28;20052;-79
2022/04/11 12:12:02;;;;;;;6.55;3.50;;;13.70;79.50;;;;;;5052533;28;20098;-79
2022/04/11 12:14:27;;;;;;;4.25;2.90;;;13.70;76.40;;;;;;5055955;28;20144;-79
2022/04/11 12:16:58;;;;;;;5.63;3.10;;;13.70;70.60;;;;;;5052017;28;20047;-78
2022/04/11 12:19:37;;;;;;;3.70;2.80;;;13.80;69.30;;;;;;5044587;28;20042;-79
2022/04/11 12:22:14;;;;;;;4.60;2.75;;;13.70;72.30;;;;;;5047921;28;20048;-79
2022/04/11 12:24:40;;;;;;;4.97;3.20;;;13.80;76.20;;;;;;5063056;28;20041;-78
2022/04/11 12:27:10;;;;;;;5.20;3.65;;;14.00;85.40;;;;;;5032898;28;20033;-78
2022/04/11 12:29:42;;;;;;;3.80;3.05;;;14.10;68.30;;;;;;5051691;28;20053;-79
2022/04/11 12:32:13;;;;;;;3.97;2.72;;;14.00;77.50;;;;;;5059067;28;20094;-79
2022/04/11 12:34:42;;;;;;;5.30;3.35;;;14.20;82.30;;;;;;5051771;28;20071;-78
2022/04/11 12:37:10;;;;;;;4.75;3.38;;;14.30;78.30;;;;;;5050599;28;20982;-78
2022/04/11 12:39:48;;;;;;;3.97;3.35;;;14.30;82.30;;;;;;5050879;28;20041;-78
2022/04/11 12:42:19;;;;;;;5.97;3.60;;;14.30;67.60;;;;;;5047125;28;20045;-79
2022/04/11 12:44:46;;;;;;;4.30;3.90;;;14.00;67.10;;;;;;5041626;28;20036;-79
2022/04/11 12:47:11;;;;;;;5.03;3.80;;;14.10;61.90;;;;;;5060715;28;20049;-78
2022/04/11 12:49:51;;;;;;;4.78;3.35;;;13.90;63.70;;;;;;5051384;28;20040;-78
2022/04/11 12:52:19;;;;;;;5.05;3.30;;;14.10;71.50;;;;;;5051338;28;20045;-78
2022/04/11 12:54:51;;;;;;;4.85;3.50;;;14.20;76.40;;;;;;5048412;28;20076;-79
2022/04/11 12:57:22;;;;;;;5.85;3.55;;;14.00;68.50;;;;;;5047574;28;20128;-79